PVG1 WAJJ-RPLL
Flight info
| Callsign | PVG1 |
|---|---|
| Flight time | 3h 37m |
| Altitude | 40000 |
| Route | KUBIA DCT MIMIK B462 POXEL DCT 08N127E DCT SADOK DCT CONDE CONDE5R |
| Aircraft | B772/H-SDE2E3FGHIJ5LORVWXY/LB1D1 |
Departure
| Time | 2026-05-07 16:29 |
|---|---|
| Airport | Dortheys Hiyo Eluay International Airport (WAJJ) |
Arrival
| Time | 2026-05-07 20:07 |
|---|---|
| Airport | Ninoy Aquino International Airport (RPLL) |
| Time | Latitude | Longitude | Altitude | Speed | Heading |
|---|---|---|---|---|---|
| 2026-05-07 16:03 | -2.57154 | 140.51302 | 305 ft | 0 kts | 37° |
| 2026-05-07 16:21 | -2.57157 | 140.51299 | 303 ft | 2 kts | 37° |
| 2026-05-07 16:21 | -2.57170 | 140.51290 | 327 ft | 2 kts | 34° |
| 2026-05-07 16:21 | -2.57184 | 140.51281 | 294 ft | 2 kts | 31° |
| 2026-05-07 16:21 | -2.57199 | 140.51273 | 302 ft | 2 kts | 18° |
| 2026-05-07 16:22 | -2.57215 | 140.51271 | 302 ft | 2 kts | 330° |
| 2026-05-07 16:22 | -2.57225 | 140.51279 | 300 ft | 1 kts | 306° |
| 2026-05-07 16:22 | -2.57226 | 140.51280 | 300 ft | 0 kts | 305° |
| 2026-05-07 16:25 | -2.57224 | 140.51278 | 303 ft | 1 kts | 305° |
| 2026-05-07 16:25 | -2.57214 | 140.51264 | 306 ft | 3 kts | 305° |
| 2026-05-07 16:25 | -2.57201 | 140.51245 | 306 ft | 3 kts | 305° |
| 2026-05-07 16:25 | -2.57188 | 140.51227 | 306 ft | 3 kts | 305° |
| 2026-05-07 16:26 | -2.57174 | 140.51208 | 305 ft | 3 kts | 306° |
| 2026-05-07 16:26 | -2.57161 | 140.51190 | 307 ft | 3 kts | 306° |
| 2026-05-07 16:26 | -2.57147 | 140.51171 | 307 ft | 3 kts | 306° |
| 2026-05-07 16:26 | -2.57138 | 140.51159 | 305 ft | 3 kts | 306° |
| 2026-05-07 16:27 | -2.57120 | 140.51135 | 306 ft | 3 kts | 307° |
| 2026-05-07 16:27 | -2.57106 | 140.51117 | 307 ft | 4 kts | 307° |
| 2026-05-07 16:27 | -2.57107 | 140.51084 | 306 ft | 6 kts | 249° |
| 2026-05-07 16:27 | -2.57131 | 140.51050 | 308 ft | 6 kts | 230° |
| 2026-05-07 16:28 | -2.57158 | 140.51019 | 307 ft | 6 kts | 230° |
| 2026-05-07 16:28 | -2.57185 | 140.50987 | 308 ft | 6 kts | 228° |
| 2026-05-07 16:28 | -2.57209 | 140.50988 | 309 ft | 3 kts | 138° |
| 2026-05-07 16:28 | -2.57212 | 140.50993 | 308 ft | 0 kts | 127° |
| 2026-05-07 16:29 | -2.57281 | 140.51086 | 306 ft | 51 kts | 127° |
| 2026-05-07 16:29 | -2.57651 | 140.51583 | 306 ft | 125 kts | 127° |
| 2026-05-07 16:29 | -2.58285 | 140.52439 | 483 ft | 167 kts | 126° |
| 2026-05-07 16:29 | -2.58994 | 140.53377 | 1232 ft | 171 kts | 128° |
| 2026-05-07 16:30 | -2.59705 | 140.54306 | 2041 ft | 167 kts | 127° |
| 2026-05-07 16:30 | -2.60383 | 140.55200 | 2669 ft | 157 kts | 127° |
| 2026-05-07 16:30 | -2.61054 | 140.56088 | 3015 ft | 167 kts | 127° |
| 2026-05-07 16:30 | -2.61803 | 140.57080 | 3002 ft | 187 kts | 127° |
| 2026-05-07 16:31 | -2.62640 | 140.58189 | 3040 ft | 215 kts | 127° |
| 2026-05-07 16:31 | -2.63608 | 140.59472 | 2995 ft | 248 kts | 127° |
| 2026-05-07 16:31 | -2.64868 | 140.60691 | 2981 ft | 256 kts | 154° |
| 2026-05-07 16:31 | -2.66596 | 140.60976 | 2990 ft | 257 kts | 191° |
| 2026-05-07 16:32 | -2.68158 | 140.60161 | 2999 ft | 257 kts | 228° |
| 2026-05-07 16:32 | -2.68921 | 140.58602 | 2994 ft | 258 kts | 264° |
| 2026-05-07 16:32 | -2.68608 | 140.56863 | 2995 ft | 258 kts | 300° |
| 2026-05-07 16:32 | -2.67374 | 140.55596 | 2993 ft | 253 kts | 324° |
| 2026-05-07 16:33 | -2.65985 | 140.54510 | 2994 ft | 255 kts | 318° |
| 2026-05-07 16:33 | -2.64750 | 140.53225 | 2990 ft | 258 kts | 309° |
| 2026-05-07 16:33 | -2.63690 | 140.51777 | 3008 ft | 256 kts | 309° |
| 2026-05-07 16:33 | -2.62244 | 140.50790 | 3496 ft | 258 kts | 346° |
| 2026-05-07 16:34 | -2.60459 | 140.50777 | 4158 ft | 259 kts | 8° |
| 2026-05-07 16:34 | -2.58675 | 140.50854 | 4612 ft | 264 kts | 347° |
| 2026-05-07 16:34 | -2.57067 | 140.49948 | 5266 ft | 266 kts | 310° |
| 2026-05-07 16:34 | -2.56243 | 140.48344 | 5958 ft | 264 kts | 286° |
| 2026-05-07 16:35 | -2.55774 | 140.46546 | 6499 ft | 271 kts | 283° |
| 2026-05-07 16:35 | -2.55319 | 140.44710 | 7162 ft | 272 kts | 283° |
| 2026-05-07 16:35 | -2.54845 | 140.42865 | 7819 ft | 275 kts | 284° |
| 2026-05-07 16:35 | -2.54348 | 140.41009 | 8452 ft | 277 kts | 285° |
| 2026-05-07 16:36 | -2.53826 | 140.39140 | 9080 ft | 281 kts | 285° |
| 2026-05-07 16:36 | -2.53285 | 140.37254 | 9703 ft | 284 kts | 285° |
| 2026-05-07 16:36 | -2.52726 | 140.35353 | 10260 ft | 287 kts | 286° |
| 2026-05-07 16:36 | -2.52151 | 140.33424 | 10895 ft | 290 kts | 286° |
| 2026-05-07 16:37 | -2.51564 | 140.31480 | 11567 ft | 293 kts | 287° |
| 2026-05-07 16:37 | -2.50968 | 140.29524 | 12302 ft | 296 kts | 287° |
| 2026-05-07 16:37 | -2.50364 | 140.27549 | 13057 ft | 299 kts | 287° |
| 2026-05-07 16:37 | -2.49750 | 140.25548 | 13810 ft | 302 kts | 287° |
| 2026-05-07 16:38 | -2.49127 | 140.23527 | 14477 ft | 306 kts | 287° |
| 2026-05-07 16:38 | -2.48496 | 140.21481 | 15191 ft | 310 kts | 287° |
| 2026-05-07 16:38 | -2.47854 | 140.19403 | 15817 ft | 319 kts | 287° |
| 2026-05-07 16:38 | -2.47173 | 140.17201 | 16000 ft | 344 kts | 287° |
| 2026-05-07 16:39 | -2.46439 | 140.14827 | 16173 ft | 369 kts | 287° |
| 2026-05-07 16:39 | -2.45665 | 140.12325 | 16623 ft | 383 kts | 287° |
| 2026-05-07 16:39 | -2.44880 | 140.09788 | 17241 ft | 391 kts | 287° |
| 2026-05-07 16:39 | -2.44069 | 140.07167 | 18017 ft | 396 kts | 287° |
| 2026-05-07 16:40 | -2.43248 | 140.04516 | 18730 ft | 400 kts | 287° |
| 2026-05-07 16:40 | -2.42421 | 140.01844 | 19441 ft | 404 kts | 287° |
| 2026-05-07 16:40 | -2.41586 | 139.99149 | 20141 ft | 408 kts | 287° |
| 2026-05-07 16:40 | -2.40740 | 139.96417 | 20817 ft | 413 kts | 287° |
| 2026-05-07 16:41 | -2.39885 | 139.93654 | 21513 ft | 418 kts | 287° |
| 2026-05-07 16:41 | -2.39315 | 139.91814 | 21978 ft | 421 kts | 287° |
| 2026-05-07 16:41 | -2.38447 | 139.89011 | 22672 ft | 425 kts | 287° |
| 2026-05-07 16:41 | -2.37566 | 139.86166 | 23348 ft | 430 kts | 287° |
| 2026-05-07 16:42 | -2.36676 | 139.83292 | 23907 ft | 434 kts | 287° |
| 2026-05-07 16:42 | -2.35781 | 139.80405 | 24474 ft | 438 kts | 287° |
| 2026-05-07 16:42 | -2.34873 | 139.77474 | 25070 ft | 442 kts | 287° |
| 2026-05-07 16:42 | -2.33961 | 139.74530 | 25639 ft | 445 kts | 287° |
| 2026-05-07 16:43 | -2.33042 | 139.71564 | 26177 ft | 449 kts | 288° |
| 2026-05-07 16:43 | -2.32113 | 139.68566 | 26699 ft | 453 kts | 288° |
| 2026-05-07 16:43 | -2.31176 | 139.65542 | 27204 ft | 457 kts | 288° |
| 2026-05-07 16:43 | -2.30232 | 139.62496 | 27705 ft | 460 kts | 288° |
| 2026-05-07 16:44 | -2.29281 | 139.59428 | 28193 ft | 464 kts | 288° |
| 2026-05-07 16:44 | -2.28322 | 139.56336 | 28695 ft | 467 kts | 288° |
| 2026-05-07 16:44 | -2.27356 | 139.53219 | 29176 ft | 470 kts | 288° |
| 2026-05-07 16:44 | -2.26386 | 139.50090 | 29646 ft | 473 kts | 288° |
| 2026-05-07 16:45 | -2.25411 | 139.46945 | 30050 ft | 476 kts | 288° |
| 2026-05-07 16:45 | -2.24424 | 139.43764 | 30400 ft | 480 kts | 288° |
| 2026-05-07 16:45 | -2.23445 | 139.40606 | 30756 ft | 482 kts | 288° |
| 2026-05-07 16:45 | -2.22449 | 139.37394 | 31110 ft | 485 kts | 288° |
| 2026-05-07 16:46 | -2.21448 | 139.34165 | 31448 ft | 487 kts | 288° |
| 2026-05-07 16:46 | -2.20442 | 139.30923 | 31764 ft | 490 kts | 288° |
| 2026-05-07 16:46 | -2.19430 | 139.27659 | 32066 ft | 492 kts | 288° |
| 2026-05-07 16:46 | -2.18411 | 139.24375 | 32360 ft | 495 kts | 288° |
| 2026-05-07 16:47 | -2.17390 | 139.21083 | 32640 ft | 497 kts | 288° |
| 2026-05-07 16:47 | -2.16361 | 139.17769 | 32894 ft | 499 kts | 288° |
| 2026-05-07 16:47 | -2.15344 | 139.14491 | 33139 ft | 501 kts | 288° |
| 2026-05-07 16:47 | -2.14309 | 139.11156 | 33380 ft | 503 kts | 288° |
| 2026-05-07 16:48 | -2.13270 | 139.07805 | 33645 ft | 504 kts | 288° |
| 2026-05-07 16:48 | -2.12234 | 139.04466 | 33967 ft | 503 kts | 288° |
| 2026-05-07 16:48 | -2.11196 | 139.01119 | 34291 ft | 501 kts | 288° |
| 2026-05-07 16:48 | -2.10151 | 138.97798 | 34622 ft | 499 kts | 290° |
| 2026-05-07 16:49 | -2.08861 | 138.94584 | 34923 ft | 497 kts | 296° |
| 2026-05-07 16:49 | -2.07291 | 138.91517 | 35211 ft | 496 kts | 301° |
| 2026-05-07 16:49 | -2.05459 | 138.88604 | 35542 ft | 493 kts | 306° |
| 2026-05-07 16:49 | -2.03457 | 138.85822 | 35867 ft | 492 kts | 307° |
| 2026-05-07 16:50 | -2.01438 | 138.83068 | 36204 ft | 490 kts | 308° |
| 2026-05-07 16:50 | -1.99418 | 138.80326 | 36543 ft | 489 kts | 308° |
| 2026-05-07 16:50 | -1.97407 | 138.77588 | 36878 ft | 488 kts | 307° |
| 2026-05-07 16:50 | -1.95431 | 138.74883 | 37215 ft | 487 kts | 307° |
| 2026-05-07 16:51 | -1.93442 | 138.72147 | 37533 ft | 486 kts | 307° |
| 2026-05-07 16:51 | -1.91460 | 138.69411 | 37864 ft | 485 kts | 307° |
| 2026-05-07 16:51 | -1.89482 | 138.66674 | 38181 ft | 484 kts | 307° |
| 2026-05-07 16:51 | -1.87517 | 138.63952 | 38478 ft | 483 kts | 307° |
| 2026-05-07 16:52 | -1.85553 | 138.61231 | 38735 ft | 482 kts | 307° |
| 2026-05-07 16:52 | -1.83590 | 138.58512 | 38979 ft | 481 kts | 307° |
| 2026-05-07 16:52 | -1.81634 | 138.55804 | 39225 ft | 480 kts | 307° |
| 2026-05-07 16:52 | -1.79676 | 138.53094 | 39462 ft | 479 kts | 307° |
| 2026-05-07 16:53 | -1.77732 | 138.50403 | 39698 ft | 478 kts | 307° |
| 2026-05-07 16:53 | -1.73812 | 138.44980 | 39818 ft | 482 kts | 307° |
| 2026-05-07 16:54 | -1.69898 | 138.39564 | 39820 ft | 478 kts | 307° |
| 2026-05-07 16:54 | -1.66039 | 138.34224 | 39830 ft | 476 kts | 307° |
| 2026-05-07 16:55 | -1.62162 | 138.28861 | 39832 ft | 476 kts | 307° |
| 2026-05-07 16:55 | -1.58279 | 138.23491 | 39830 ft | 477 kts | 307° |
| 2026-05-07 16:56 | -1.54391 | 138.18112 | 39828 ft | 478 kts | 307° |
| 2026-05-07 16:56 | -1.48543 | 138.10025 | 39828 ft | 479 kts | 307° |
| 2026-05-07 16:57 | -1.44634 | 138.04619 | 39827 ft | 480 kts | 307° |
| 2026-05-07 16:57 | -1.40713 | 137.99196 | 39825 ft | 481 kts | 307° |
| 2026-05-07 16:58 | -1.36816 | 137.93807 | 39824 ft | 482 kts | 307° |
| 2026-05-07 16:58 | -1.32885 | 137.88372 | 39825 ft | 482 kts | 307° |
| 2026-05-07 16:59 | -1.28954 | 137.82938 | 39821 ft | 482 kts | 307° |
| 2026-05-07 16:59 | -1.25025 | 137.77505 | 39823 ft | 483 kts | 306° |
| 2026-05-07 17:00 | -1.21085 | 137.72059 | 39824 ft | 483 kts | 306° |
| 2026-05-07 17:00 | -1.17174 | 137.66653 | 39823 ft | 483 kts | 306° |
| 2026-05-07 17:01 | -1.13232 | 137.61203 | 39821 ft | 483 kts | 306° |
| 2026-05-07 17:01 | -1.09292 | 137.55756 | 39822 ft | 483 kts | 306° |
| 2026-05-07 17:02 | -1.05353 | 137.50313 | 39824 ft | 483 kts | 306° |
| 2026-05-07 17:02 | -1.01415 | 137.44871 | 39819 ft | 483 kts | 306° |
| 2026-05-07 17:03 | -0.97504 | 137.39465 | 39825 ft | 483 kts | 306° |
| 2026-05-07 17:03 | -0.93568 | 137.34026 | 39823 ft | 482 kts | 306° |
| 2026-05-07 17:04 | -0.89634 | 137.28589 | 39819 ft | 482 kts | 306° |
| 2026-05-07 17:04 | -0.85704 | 137.23159 | 39824 ft | 481 kts | 306° |
| 2026-05-07 17:05 | -0.81809 | 137.17777 | 39820 ft | 481 kts | 306° |
| 2026-05-07 17:05 | -0.77894 | 137.12367 | 39822 ft | 480 kts | 306° |
| 2026-05-07 17:06 | -0.73980 | 137.06959 | 39820 ft | 479 kts | 306° |
| 2026-05-07 17:06 | -0.70072 | 137.01560 | 39819 ft | 479 kts | 306° |
| 2026-05-07 17:07 | -0.66164 | 136.96161 | 39801 ft | 478 kts | 306° |
| 2026-05-07 17:07 | -0.62274 | 136.90788 | 39817 ft | 476 kts | 306° |
| 2026-05-07 17:08 | -0.58402 | 136.85439 | 39821 ft | 474 kts | 306° |
| 2026-05-07 17:08 | -0.54561 | 136.80133 | 39821 ft | 473 kts | 306° |
| 2026-05-07 17:09 | -0.50706 | 136.74806 | 39824 ft | 473 kts | 306° |
| 2026-05-07 17:09 | -0.46854 | 136.69487 | 39827 ft | 472 kts | 306° |
| 2026-05-07 17:10 | -0.42999 | 136.64160 | 39825 ft | 472 kts | 306° |
| 2026-05-07 17:10 | -0.39144 | 136.58836 | 39824 ft | 472 kts | 306° |
| 2026-05-07 17:11 | -0.35289 | 136.53510 | 39822 ft | 473 kts | 306° |
| 2026-05-07 17:11 | -0.31456 | 136.48217 | 39826 ft | 473 kts | 306° |
| 2026-05-07 17:12 | -0.27603 | 136.42895 | 39822 ft | 472 kts | 306° |
| 2026-05-07 17:12 | -0.23752 | 136.37575 | 39821 ft | 472 kts | 306° |
| 2026-05-07 17:13 | -0.19903 | 136.32259 | 39819 ft | 472 kts | 306° |
| 2026-05-07 17:13 | -0.16054 | 136.26942 | 39828 ft | 472 kts | 306° |
| 2026-05-07 17:14 | -0.12224 | 136.21652 | 39826 ft | 472 kts | 306° |
| 2026-05-07 17:14 | -0.08369 | 136.16327 | 39826 ft | 472 kts | 306° |
| 2026-05-07 17:15 | -0.04521 | 136.11012 | 39824 ft | 472 kts | 306° |
| 2026-05-07 17:15 | -0.00690 | 136.05722 | 39822 ft | 472 kts | 306° |
| 2026-05-07 17:16 | 0.03163 | 136.00400 | 39820 ft | 473 kts | 306° |
| 2026-05-07 17:16 | 0.07014 | 135.95081 | 39824 ft | 473 kts | 306° |
| 2026-05-07 17:17 | 0.10871 | 135.89753 | 39822 ft | 473 kts | 306° |
| 2026-05-07 17:17 | 0.14734 | 135.84418 | 39826 ft | 473 kts | 307° |
| 2026-05-07 17:18 | 0.18594 | 135.79086 | 39825 ft | 473 kts | 306° |
| 2026-05-07 17:18 | 0.22451 | 135.73757 | 39825 ft | 473 kts | 307° |
| 2026-05-07 17:19 | 0.26286 | 135.68461 | 39824 ft | 473 kts | 307° |
| 2026-05-07 17:19 | 0.30171 | 135.63095 | 39824 ft | 473 kts | 307° |
| 2026-05-07 17:20 | 0.33999 | 135.57807 | 39825 ft | 473 kts | 307° |
| 2026-05-07 17:20 | 0.37861 | 135.52473 | 39827 ft | 473 kts | 307° |
| 2026-05-07 17:21 | 0.41715 | 135.47149 | 39825 ft | 473 kts | 307° |
| 2026-05-07 17:21 | 0.45577 | 135.41814 | 39824 ft | 473 kts | 307° |
| 2026-05-07 17:22 | 0.49434 | 135.36487 | 39824 ft | 473 kts | 307° |
| 2026-05-07 17:22 | 0.53263 | 135.31196 | 39823 ft | 473 kts | 307° |
| 2026-05-07 17:23 | 0.57121 | 135.25868 | 39823 ft | 473 kts | 307° |
| 2026-05-07 17:23 | 0.60979 | 135.20537 | 39824 ft | 473 kts | 307° |
| 2026-05-07 17:24 | 0.64836 | 135.15209 | 39823 ft | 473 kts | 307° |
| 2026-05-07 17:24 | 0.68693 | 135.09880 | 39823 ft | 473 kts | 307° |
| 2026-05-07 17:25 | 0.72552 | 135.04549 | 39824 ft | 473 kts | 307° |
| 2026-05-07 17:25 | 0.76411 | 134.99216 | 39832 ft | 473 kts | 307° |
| 2026-05-07 17:26 | 0.80265 | 134.93891 | 39832 ft | 473 kts | 307° |
| 2026-05-07 17:26 | 0.84098 | 134.88596 | 39832 ft | 472 kts | 307° |
| 2026-05-07 17:27 | 0.87951 | 134.83272 | 39830 ft | 472 kts | 307° |
| 2026-05-07 17:27 | 0.91799 | 134.77954 | 39832 ft | 472 kts | 307° |
| 2026-05-07 17:28 | 0.95655 | 134.72626 | 39829 ft | 472 kts | 307° |
| 2026-05-07 17:28 | 0.99477 | 134.67343 | 39832 ft | 472 kts | 307° |
| 2026-05-07 17:29 | 1.03322 | 134.62030 | 39830 ft | 472 kts | 307° |
| 2026-05-07 17:29 | 1.07173 | 134.56707 | 39830 ft | 472 kts | 307° |
| 2026-05-07 17:30 | 1.11015 | 134.51397 | 39828 ft | 472 kts | 307° |
| 2026-05-07 17:30 | 1.14843 | 134.46106 | 39833 ft | 472 kts | 307° |
| 2026-05-07 17:31 | 1.18685 | 134.40794 | 39829 ft | 472 kts | 307° |
| 2026-05-07 17:31 | 1.22531 | 134.35478 | 39829 ft | 471 kts | 307° |
| 2026-05-07 17:32 | 1.25724 | 134.31063 | 39829 ft | 471 kts | 307° |
| 2026-05-07 17:32 | 1.29566 | 134.25752 | 39831 ft | 472 kts | 307° |
| 2026-05-07 17:33 | 1.33406 | 134.20442 | 39833 ft | 472 kts | 307° |
| 2026-05-07 17:33 | 1.37253 | 134.15123 | 39832 ft | 472 kts | 306° |
| 2026-05-07 17:34 | 1.41100 | 134.09804 | 39833 ft | 472 kts | 306° |
| 2026-05-07 17:34 | 1.44944 | 134.04488 | 39833 ft | 472 kts | 306° |
| 2026-05-07 17:35 | 1.48795 | 133.99162 | 39834 ft | 472 kts | 306° |
| 2026-05-07 17:35 | 1.52622 | 133.93869 | 39830 ft | 473 kts | 306° |
| 2026-05-07 17:36 | 1.56473 | 133.88543 | 39830 ft | 473 kts | 306° |
| 2026-05-07 17:36 | 1.60323 | 133.83216 | 39832 ft | 473 kts | 306° |
| 2026-05-07 17:37 | 1.64177 | 133.77884 | 39832 ft | 473 kts | 306° |
| 2026-05-07 17:37 | 1.68028 | 133.72557 | 39828 ft | 473 kts | 306° |
| 2026-05-07 17:38 | 1.71879 | 133.67229 | 39833 ft | 473 kts | 306° |
| 2026-05-07 17:38 | 1.75732 | 133.61897 | 39832 ft | 473 kts | 306° |
| 2026-05-07 17:39 | 1.79559 | 133.56601 | 39829 ft | 473 kts | 306° |
| 2026-05-07 17:39 | 1.83416 | 133.51262 | 39833 ft | 473 kts | 306° |
| 2026-05-07 17:40 | 1.87271 | 133.45927 | 39832 ft | 473 kts | 306° |
| 2026-05-07 17:40 | 1.91131 | 133.40582 | 39832 ft | 474 kts | 306° |
| 2026-05-07 17:41 | 1.94992 | 133.35237 | 39833 ft | 474 kts | 306° |
| 2026-05-07 17:41 | 1.98852 | 133.29940 | 39837 ft | 473 kts | 309° |
| 2026-05-07 17:42 | 2.03370 | 133.25167 | 39837 ft | 473 kts | 319° |
| 2026-05-07 17:42 | 2.08317 | 133.20814 | 39831 ft | 473 kts | 319° |
| 2026-05-07 17:43 | 2.13265 | 133.16481 | 39836 ft | 473 kts | 319° |
| 2026-05-07 17:43 | 2.18207 | 133.12113 | 39832 ft | 473 kts | 319° |
| 2026-05-07 17:44 | 2.23096 | 133.07765 | 39833 ft | 474 kts | 319° |
| 2026-05-07 17:44 | 2.28025 | 133.03376 | 39832 ft | 474 kts | 319° |
| 2026-05-07 17:45 | 2.32950 | 132.98991 | 39835 ft | 474 kts | 319° |
| 2026-05-07 17:45 | 2.37873 | 132.94609 | 39832 ft | 474 kts | 319° |
| 2026-05-07 17:46 | 2.42797 | 132.90226 | 39834 ft | 473 kts | 319° |
| 2026-05-07 17:46 | 2.47718 | 132.85845 | 39833 ft | 473 kts | 319° |
| 2026-05-07 17:47 | 2.52638 | 132.81465 | 39831 ft | 473 kts | 319° |
| 2026-05-07 17:47 | 2.57550 | 132.77091 | 39832 ft | 473 kts | 319° |
| 2026-05-07 17:48 | 2.62461 | 132.72718 | 39832 ft | 473 kts | 319° |
| 2026-05-07 17:48 | 2.67378 | 132.68338 | 39833 ft | 473 kts | 319° |
| 2026-05-07 17:49 | 2.72258 | 132.63991 | 39832 ft | 473 kts | 319° |
| 2026-05-07 17:49 | 2.77174 | 132.59612 | 39830 ft | 473 kts | 319° |
| 2026-05-07 17:50 | 2.82089 | 132.55233 | 39829 ft | 473 kts | 319° |
| 2026-05-07 17:50 | 2.87005 | 132.50853 | 39828 ft | 473 kts | 319° |
| 2026-05-07 17:51 | 2.91919 | 132.46474 | 39829 ft | 473 kts | 319° |
| 2026-05-07 17:51 | 2.96825 | 132.42101 | 39834 ft | 472 kts | 319° |
| 2026-05-07 17:52 | 3.01731 | 132.37729 | 39831 ft | 472 kts | 319° |
| 2026-05-07 17:52 | 3.06632 | 132.33359 | 39834 ft | 472 kts | 319° |
| 2026-05-07 17:53 | 3.11502 | 132.29017 | 39835 ft | 471 kts | 319° |
| 2026-05-07 17:53 | 3.16397 | 132.24652 | 39833 ft | 471 kts | 319° |
| 2026-05-07 17:54 | 3.21285 | 132.20293 | 39834 ft | 471 kts | 319° |
| 2026-05-07 17:54 | 3.26179 | 132.15928 | 39834 ft | 470 kts | 319° |
| 2026-05-07 17:55 | 3.31061 | 132.11572 | 39831 ft | 470 kts | 319° |
| 2026-05-07 17:55 | 3.35946 | 132.07215 | 39834 ft | 470 kts | 318° |
| 2026-05-07 17:56 | 3.40824 | 132.02861 | 39836 ft | 470 kts | 318° |
| 2026-05-07 17:56 | 3.45673 | 131.98534 | 39831 ft | 469 kts | 318° |
| 2026-05-07 17:57 | 3.49759 | 131.94887 | 39829 ft | 469 kts | 318° |
| 2026-05-07 17:57 | 3.55432 | 131.89823 | 39830 ft | 470 kts | 318° |
| 2026-05-07 17:58 | 3.60303 | 131.85474 | 39830 ft | 470 kts | 318° |
| 2026-05-07 17:58 | 3.65188 | 131.81111 | 39832 ft | 470 kts | 318° |
| 2026-05-07 17:59 | 3.70073 | 131.76749 | 39831 ft | 471 kts | 318° |
| 2026-05-07 17:59 | 3.74932 | 131.72408 | 39830 ft | 471 kts | 318° |
| 2026-05-07 18:00 | 3.79820 | 131.68041 | 39830 ft | 471 kts | 318° |
| 2026-05-07 18:00 | 3.84714 | 131.63668 | 39832 ft | 471 kts | 318° |
| 2026-05-07 18:01 | 3.89599 | 131.59302 | 39829 ft | 471 kts | 318° |
| 2026-05-07 18:01 | 3.94494 | 131.54925 | 39831 ft | 471 kts | 318° |
| 2026-05-07 18:02 | 4.01805 | 131.48400 | 39825 ft | 471 kts | 318° |
| 2026-05-07 18:03 | 4.06740 | 131.44075 | 39826 ft | 471 kts | 319° |
| 2026-05-07 18:03 | 4.11683 | 131.39758 | 39821 ft | 471 kts | 319° |
| 2026-05-07 18:04 | 4.16586 | 131.35466 | 39830 ft | 471 kts | 319° |
| 2026-05-07 18:04 | 4.21523 | 131.31137 | 39828 ft | 471 kts | 319° |
| 2026-05-07 18:05 | 4.26464 | 131.26802 | 39831 ft | 471 kts | 319° |
| 2026-05-07 18:05 | 4.31406 | 131.22465 | 39828 ft | 472 kts | 318° |
| 2026-05-07 18:06 | 4.36347 | 131.18129 | 39831 ft | 472 kts | 318° |
| 2026-05-07 18:06 | 4.41273 | 131.13805 | 39831 ft | 473 kts | 318° |
| 2026-05-07 18:07 | 4.46222 | 131.09460 | 39830 ft | 473 kts | 318° |
| 2026-05-07 18:07 | 4.51178 | 131.05109 | 39831 ft | 473 kts | 318° |
| 2026-05-07 18:08 | 4.56131 | 131.00758 | 39828 ft | 473 kts | 318° |
| 2026-05-07 18:08 | 4.61093 | 130.96399 | 39827 ft | 474 kts | 318° |
| 2026-05-07 18:09 | 4.65940 | 130.92001 | 39834 ft | 473 kts | 313° |
| 2026-05-07 18:09 | 4.70290 | 130.87048 | 39827 ft | 473 kts | 310° |
| 2026-05-07 18:10 | 4.74553 | 130.82017 | 39829 ft | 474 kts | 310° |
| 2026-05-07 18:10 | 4.78838 | 130.76985 | 39829 ft | 474 kts | 310° |
| 2026-05-07 18:11 | 4.83141 | 130.71968 | 39832 ft | 474 kts | 310° |
| 2026-05-07 18:11 | 4.87453 | 130.66956 | 39835 ft | 474 kts | 310° |
| 2026-05-07 18:12 | 4.91771 | 130.61936 | 39831 ft | 475 kts | 310° |
| 2026-05-07 18:12 | 4.96078 | 130.56927 | 39832 ft | 475 kts | 310° |
| 2026-05-07 18:13 | 5.00362 | 130.51943 | 39832 ft | 475 kts | 310° |
| 2026-05-07 18:13 | 5.04674 | 130.46923 | 39832 ft | 475 kts | 310° |
| 2026-05-07 18:14 | 5.08987 | 130.41904 | 39829 ft | 475 kts | 310° |
| 2026-05-07 18:14 | 5.13295 | 130.36887 | 39832 ft | 475 kts | 310° |
| 2026-05-07 18:15 | 5.17609 | 130.31863 | 39827 ft | 474 kts | 310° |
| 2026-05-07 18:15 | 5.21924 | 130.26837 | 39830 ft | 474 kts | 310° |
| 2026-05-07 18:16 | 5.26225 | 130.21825 | 39836 ft | 474 kts | 310° |
| 2026-05-07 18:16 | 5.30532 | 130.16806 | 39832 ft | 474 kts | 310° |
| 2026-05-07 18:17 | 5.34807 | 130.11822 | 39834 ft | 473 kts | 310° |
| 2026-05-07 18:17 | 5.39100 | 130.06816 | 39833 ft | 473 kts | 310° |
| 2026-05-07 18:18 | 5.43397 | 130.01805 | 39835 ft | 473 kts | 310° |
| 2026-05-07 18:18 | 5.47686 | 129.96801 | 39829 ft | 473 kts | 310° |
| 2026-05-07 18:19 | 5.51252 | 129.92641 | 39831 ft | 473 kts | 310° |
| 2026-05-07 18:19 | 5.55548 | 129.87627 | 39831 ft | 473 kts | 310° |
| 2026-05-07 18:20 | 5.59837 | 129.82621 | 39829 ft | 473 kts | 310° |
| 2026-05-07 18:20 | 5.64123 | 129.77616 | 39829 ft | 473 kts | 310° |
| 2026-05-07 18:21 | 5.68407 | 129.72612 | 39830 ft | 473 kts | 310° |
| 2026-05-07 18:21 | 5.72702 | 129.67596 | 39833 ft | 473 kts | 310° |
| 2026-05-07 18:22 | 5.76994 | 129.62580 | 39830 ft | 473 kts | 310° |
| 2026-05-07 18:22 | 5.81285 | 129.57565 | 39830 ft | 473 kts | 310° |
| 2026-05-07 18:23 | 5.85574 | 129.52551 | 39829 ft | 473 kts | 310° |
| 2026-05-07 18:23 | 5.89869 | 129.47529 | 39830 ft | 473 kts | 310° |
| 2026-05-07 18:24 | 5.94159 | 129.42510 | 39826 ft | 473 kts | 310° |
| 2026-05-07 18:24 | 5.98424 | 129.37521 | 39831 ft | 474 kts | 310° |
| 2026-05-07 18:25 | 6.02724 | 129.32488 | 39831 ft | 474 kts | 310° |
| 2026-05-07 18:25 | 6.07022 | 129.27456 | 39831 ft | 475 kts | 310° |
| 2026-05-07 18:26 | 6.11328 | 129.22415 | 39831 ft | 475 kts | 310° |
| 2026-05-07 18:26 | 6.15638 | 129.17366 | 39831 ft | 476 kts | 310° |
| 2026-05-07 18:27 | 6.19952 | 129.12312 | 39830 ft | 476 kts | 310° |
| 2026-05-07 18:27 | 6.24243 | 129.07284 | 39833 ft | 477 kts | 310° |
| 2026-05-07 18:28 | 6.28562 | 129.02221 | 39831 ft | 477 kts | 309° |
| 2026-05-07 18:28 | 6.32883 | 128.97155 | 39831 ft | 477 kts | 309° |
| 2026-05-07 18:29 | 6.37204 | 128.92086 | 39827 ft | 476 kts | 309° |
| 2026-05-07 18:29 | 6.41518 | 128.87025 | 39831 ft | 476 kts | 309° |
| 2026-05-07 18:30 | 6.45824 | 128.81972 | 39832 ft | 476 kts | 309° |
| 2026-05-07 18:30 | 6.50126 | 128.76922 | 39832 ft | 475 kts | 309° |
| 2026-05-07 18:31 | 6.54422 | 128.71878 | 39831 ft | 474 kts | 309° |
| 2026-05-07 18:31 | 6.58685 | 128.66871 | 39832 ft | 474 kts | 309° |
| 2026-05-07 18:32 | 6.62971 | 128.61835 | 39829 ft | 473 kts | 309° |
| 2026-05-07 18:32 | 6.67256 | 128.56799 | 39832 ft | 473 kts | 309° |
| 2026-05-07 18:33 | 6.71542 | 128.51761 | 39832 ft | 473 kts | 309° |
| 2026-05-07 18:33 | 6.75825 | 128.46724 | 39830 ft | 474 kts | 309° |
| 2026-05-07 18:34 | 6.80082 | 128.41717 | 39827 ft | 474 kts | 309° |
| 2026-05-07 18:34 | 6.84373 | 128.36667 | 39828 ft | 474 kts | 309° |
| 2026-05-07 18:35 | 6.88663 | 128.31618 | 39828 ft | 474 kts | 309° |
| 2026-05-07 18:35 | 6.92951 | 128.26570 | 39829 ft | 474 kts | 309° |
| 2026-05-07 18:36 | 6.97216 | 128.21547 | 39829 ft | 474 kts | 309° |
| 2026-05-07 18:36 | 7.01505 | 128.16494 | 39831 ft | 474 kts | 309° |
| 2026-05-07 18:37 | 7.05796 | 128.11438 | 39830 ft | 474 kts | 309° |
| 2026-05-07 18:37 | 7.10087 | 128.06379 | 39832 ft | 474 kts | 309° |
| 2026-05-07 18:38 | 7.14377 | 128.01320 | 39831 ft | 474 kts | 309° |
| 2026-05-07 18:38 | 7.18640 | 127.96292 | 39831 ft | 474 kts | 309° |
| 2026-05-07 18:39 | 7.22927 | 127.91234 | 39832 ft | 475 kts | 309° |
| 2026-05-07 18:39 | 7.27219 | 127.86168 | 39828 ft | 475 kts | 309° |
| 2026-05-07 18:40 | 7.31510 | 127.81101 | 39832 ft | 475 kts | 309° |
| 2026-05-07 18:40 | 7.35798 | 127.76038 | 39835 ft | 475 kts | 309° |
| 2026-05-07 18:41 | 7.40085 | 127.70972 | 39831 ft | 475 kts | 309° |
| 2026-05-07 18:41 | 7.44375 | 127.65902 | 39834 ft | 475 kts | 309° |
| 2026-05-07 18:42 | 7.48636 | 127.60865 | 39836 ft | 475 kts | 309° |
| 2026-05-07 18:42 | 7.52927 | 127.55790 | 39833 ft | 475 kts | 309° |
| 2026-05-07 18:43 | 7.57217 | 127.50715 | 39831 ft | 475 kts | 309° |
| 2026-05-07 18:43 | 7.61504 | 127.45642 | 39833 ft | 475 kts | 309° |
| 2026-05-07 18:44 | 7.65791 | 127.40567 | 39832 ft | 475 kts | 309° |
| 2026-05-07 18:44 | 7.70083 | 127.35483 | 39834 ft | 475 kts | 309° |
| 2026-05-07 18:45 | 7.74370 | 127.30405 | 39831 ft | 476 kts | 309° |
| 2026-05-07 18:45 | 7.78660 | 127.25321 | 39830 ft | 476 kts | 309° |
| 2026-05-07 18:46 | 7.82924 | 127.20266 | 39832 ft | 476 kts | 309° |
| 2026-05-07 18:46 | 7.87212 | 127.15180 | 39833 ft | 476 kts | 309° |
| 2026-05-07 18:47 | 7.91497 | 127.10096 | 39833 ft | 476 kts | 309° |
| 2026-05-07 18:47 | 7.95781 | 127.05011 | 39835 ft | 476 kts | 309° |
| 2026-05-07 18:48 | 8.00444 | 127.00289 | 39844 ft | 476 kts | 320° |
| 2026-05-07 18:48 | 8.05906 | 126.96492 | 39837 ft | 477 kts | 329° |
| 2026-05-07 18:49 | 8.11706 | 126.93198 | 39838 ft | 478 kts | 330° |
| 2026-05-07 18:49 | 8.17508 | 126.89943 | 39837 ft | 477 kts | 329° |
| 2026-05-07 18:50 | 8.23264 | 126.86675 | 39836 ft | 477 kts | 329° |
| 2026-05-07 18:50 | 8.29029 | 126.83373 | 39839 ft | 476 kts | 329° |
| 2026-05-07 18:51 | 8.34802 | 126.80059 | 39841 ft | 476 kts | 329° |
| 2026-05-07 18:51 | 8.40560 | 126.76752 | 39840 ft | 476 kts | 329° |
| 2026-05-07 18:52 | 8.46289 | 126.73462 | 39838 ft | 476 kts | 329° |
| 2026-05-07 18:52 | 8.52046 | 126.70156 | 39836 ft | 476 kts | 329° |
| 2026-05-07 18:53 | 8.57810 | 126.66845 | 39836 ft | 475 kts | 329° |
| 2026-05-07 18:53 | 8.63562 | 126.63539 | 39843 ft | 475 kts | 329° |
| 2026-05-07 18:54 | 8.69318 | 126.60230 | 39841 ft | 475 kts | 329° |
| 2026-05-07 18:54 | 8.75030 | 126.56945 | 39842 ft | 475 kts | 329° |
| 2026-05-07 18:55 | 8.80786 | 126.53634 | 39844 ft | 475 kts | 328° |
| 2026-05-07 18:55 | 8.86546 | 126.50319 | 39847 ft | 475 kts | 328° |
| 2026-05-07 18:56 | 8.92294 | 126.47009 | 39848 ft | 475 kts | 328° |
| 2026-05-07 18:56 | 8.98035 | 126.43703 | 39848 ft | 475 kts | 328° |
| 2026-05-07 18:57 | 9.03747 | 126.40412 | 39851 ft | 474 kts | 328° |
| 2026-05-07 18:57 | 9.09483 | 126.37107 | 39850 ft | 474 kts | 328° |
| 2026-05-07 18:58 | 9.15219 | 126.33799 | 39848 ft | 474 kts | 328° |
| 2026-05-07 18:58 | 9.20944 | 126.30497 | 39852 ft | 473 kts | 328° |
| 2026-05-07 18:59 | 9.26682 | 126.27186 | 39854 ft | 473 kts | 328° |
| 2026-05-07 18:59 | 9.32402 | 126.23884 | 39851 ft | 473 kts | 328° |
| 2026-05-07 19:00 | 9.38090 | 126.20600 | 39853 ft | 473 kts | 328° |
| 2026-05-07 19:00 | 9.43822 | 126.17289 | 39859 ft | 473 kts | 328° |
| 2026-05-07 19:01 | 9.49539 | 126.13985 | 39856 ft | 473 kts | 328° |
| 2026-05-07 19:01 | 9.55260 | 126.10677 | 39853 ft | 473 kts | 328° |
| 2026-05-07 19:02 | 9.60939 | 126.07393 | 39858 ft | 473 kts | 328° |
| 2026-05-07 19:02 | 9.66668 | 126.04079 | 39847 ft | 472 kts | 328° |
| 2026-05-07 19:03 | 9.72369 | 126.00779 | 39854 ft | 472 kts | 328° |
| 2026-05-07 19:03 | 9.78062 | 125.97482 | 39855 ft | 471 kts | 328° |
| 2026-05-07 19:04 | 9.83755 | 125.94185 | 39853 ft | 470 kts | 328° |
| 2026-05-07 19:04 | 9.88480 | 125.91447 | 39853 ft | 469 kts | 328° |
| 2026-05-07 19:05 | 9.95079 | 125.87621 | 39851 ft | 469 kts | 328° |
| 2026-05-07 19:05 | 9.99782 | 125.84894 | 39851 ft | 469 kts | 328° |
| 2026-05-07 19:06 | 10.05444 | 125.81609 | 39853 ft | 468 kts | 328° |
| 2026-05-07 19:06 | 10.13973 | 125.76658 | 39857 ft | 468 kts | 328° |
| 2026-05-07 19:07 | 10.19597 | 125.73392 | 39853 ft | 468 kts | 328° |
| 2026-05-07 19:07 | 10.25253 | 125.70106 | 39853 ft | 468 kts | 328° |
| 2026-05-07 19:08 | 10.30913 | 125.66816 | 39857 ft | 469 kts | 328° |
| 2026-05-07 19:08 | 10.36576 | 125.63523 | 39854 ft | 469 kts | 328° |
| 2026-05-07 19:09 | 10.42236 | 125.60231 | 39848 ft | 469 kts | 328° |
| 2026-05-07 19:09 | 10.47910 | 125.56929 | 39848 ft | 469 kts | 328° |
| 2026-05-07 19:10 | 10.53541 | 125.53650 | 39851 ft | 470 kts | 328° |
| 2026-05-07 19:10 | 10.59227 | 125.50338 | 39851 ft | 470 kts | 328° |
| 2026-05-07 19:11 | 10.64896 | 125.47035 | 39850 ft | 470 kts | 328° |
| 2026-05-07 19:11 | 10.70573 | 125.43725 | 39862 ft | 470 kts | 328° |
| 2026-05-07 19:12 | 10.76250 | 125.40413 | 39852 ft | 470 kts | 328° |
| 2026-05-07 19:12 | 10.81891 | 125.37121 | 39855 ft | 470 kts | 328° |
| 2026-05-07 19:13 | 10.87560 | 125.33810 | 39858 ft | 469 kts | 327° |
| 2026-05-07 19:13 | 10.92737 | 125.29834 | 39861 ft | 465 kts | 315° |
| 2026-05-07 19:14 | 10.97029 | 125.24946 | 39867 ft | 462 kts | 306° |
| 2026-05-07 19:14 | 11.00941 | 125.19746 | 39866 ft | 463 kts | 306° |
| 2026-05-07 19:15 | 11.04846 | 125.14525 | 39867 ft | 463 kts | 306° |
| 2026-05-07 19:15 | 11.08776 | 125.09320 | 39867 ft | 463 kts | 306° |
| 2026-05-07 19:16 | 11.12718 | 125.04126 | 39869 ft | 463 kts | 306° |
| 2026-05-07 19:16 | 11.16668 | 124.98928 | 39869 ft | 464 kts | 306° |
| 2026-05-07 19:17 | 11.20596 | 124.93755 | 39867 ft | 464 kts | 306° |
| 2026-05-07 19:17 | 11.24544 | 124.88553 | 39869 ft | 464 kts | 306° |
| 2026-05-07 19:18 | 11.28486 | 124.83354 | 39866 ft | 463 kts | 306° |
| 2026-05-07 19:18 | 11.32430 | 124.78151 | 39866 ft | 463 kts | 306° |
| 2026-05-07 19:19 | 11.36371 | 124.72948 | 39863 ft | 464 kts | 306° |
| 2026-05-07 19:19 | 11.40285 | 124.67779 | 39865 ft | 463 kts | 306° |
| 2026-05-07 19:20 | 11.44223 | 124.62575 | 39863 ft | 464 kts | 306° |
| 2026-05-07 19:20 | 11.48167 | 124.57360 | 39864 ft | 464 kts | 306° |
| 2026-05-07 19:21 | 11.52111 | 124.52144 | 39867 ft | 464 kts | 306° |
| 2026-05-07 19:21 | 11.56052 | 124.46927 | 39867 ft | 465 kts | 306° |
| 2026-05-07 19:22 | 11.60000 | 124.41699 | 39860 ft | 465 kts | 306° |
| 2026-05-07 19:22 | 11.63924 | 124.36502 | 39862 ft | 465 kts | 306° |
| 2026-05-07 19:23 | 11.67864 | 124.31280 | 39853 ft | 464 kts | 306° |
| 2026-05-07 19:23 | 11.71803 | 124.26055 | 39855 ft | 464 kts | 306° |
| 2026-05-07 19:24 | 11.75735 | 124.20838 | 39857 ft | 464 kts | 306° |
| 2026-05-07 19:24 | 11.79681 | 124.15599 | 39855 ft | 464 kts | 306° |
| 2026-05-07 19:25 | 11.83617 | 124.10371 | 39856 ft | 464 kts | 306° |
| 2026-05-07 19:25 | 11.87525 | 124.05177 | 39856 ft | 464 kts | 306° |
| 2026-05-07 19:26 | 11.91460 | 123.99945 | 39857 ft | 464 kts | 306° |
| 2026-05-07 19:26 | 11.95397 | 123.94706 | 39856 ft | 465 kts | 306° |
| 2026-05-07 19:27 | 11.99333 | 123.89468 | 39854 ft | 465 kts | 306° |
| 2026-05-07 19:27 | 12.03265 | 123.84231 | 39852 ft | 465 kts | 306° |
| 2026-05-07 19:28 | 12.07203 | 123.78982 | 39853 ft | 465 kts | 306° |
| 2026-05-07 19:28 | 12.11135 | 123.73740 | 39858 ft | 465 kts | 306° |
| 2026-05-07 19:29 | 12.15073 | 123.68486 | 39848 ft | 465 kts | 306° |
| 2026-05-07 19:29 | 12.19006 | 123.63237 | 39858 ft | 465 kts | 306° |
| 2026-05-07 19:30 | 12.22921 | 123.58009 | 39856 ft | 465 kts | 306° |
| 2026-05-07 19:30 | 12.26862 | 123.52743 | 39852 ft | 465 kts | 306° |
| 2026-05-07 19:31 | 12.30790 | 123.47491 | 39854 ft | 465 kts | 306° |
| 2026-05-07 19:31 | 12.34723 | 123.42230 | 39850 ft | 465 kts | 306° |
| 2026-05-07 19:32 | 12.38653 | 123.36970 | 39848 ft | 465 kts | 306° |
| 2026-05-07 19:32 | 12.42578 | 123.31713 | 39854 ft | 464 kts | 306° |
| 2026-05-07 19:33 | 12.46499 | 123.26460 | 39855 ft | 465 kts | 306° |
| 2026-05-07 19:33 | 12.50421 | 123.21201 | 39847 ft | 465 kts | 306° |
| 2026-05-07 19:34 | 12.54342 | 123.15941 | 39852 ft | 464 kts | 306° |
| 2026-05-07 19:34 | 12.58258 | 123.10685 | 39850 ft | 464 kts | 306° |
| 2026-05-07 19:35 | 12.62146 | 123.05464 | 39851 ft | 464 kts | 306° |
| 2026-05-07 19:35 | 12.66063 | 123.00201 | 39851 ft | 464 kts | 306° |
| 2026-05-07 19:36 | 12.69976 | 122.94939 | 39851 ft | 464 kts | 306° |
| 2026-05-07 19:36 | 12.73893 | 122.89670 | 39853 ft | 464 kts | 306° |
| 2026-05-07 19:37 | 12.77809 | 122.84398 | 39853 ft | 465 kts | 306° |
| 2026-05-07 19:37 | 12.81724 | 122.79125 | 39851 ft | 465 kts | 306° |
| 2026-05-07 19:38 | 12.85612 | 122.73885 | 39851 ft | 465 kts | 306° |
| 2026-05-07 19:38 | 12.89532 | 122.68601 | 39859 ft | 465 kts | 305° |
| 2026-05-07 19:39 | 12.93449 | 122.63315 | 39857 ft | 465 kts | 305° |
| 2026-05-07 19:39 | 12.96709 | 122.58915 | 39854 ft | 465 kts | 305° |
| 2026-05-07 19:40 | 13.01285 | 122.52734 | 39855 ft | 465 kts | 305° |
| 2026-05-07 19:40 | 13.05170 | 122.47483 | 39857 ft | 465 kts | 305° |
| 2026-05-07 19:41 | 13.09082 | 122.42192 | 39855 ft | 465 kts | 305° |
| 2026-05-07 19:41 | 13.11045 | 122.39537 | 39492 ft | 470 kts | 305° |
| 2026-05-07 19:41 | 13.13036 | 122.36841 | 38870 ft | 473 kts | 305° |
| 2026-05-07 19:42 | 13.15019 | 122.34156 | 38211 ft | 472 kts | 305° |
| 2026-05-07 19:42 | 13.16994 | 122.31483 | 37706 ft | 467 kts | 305° |
| 2026-05-07 19:42 | 13.18921 | 122.28874 | 37233 ft | 462 kts | 305° |
| 2026-05-07 19:42 | 13.20857 | 122.26252 | 36769 ft | 458 kts | 305° |
| 2026-05-07 19:43 | 13.22773 | 122.23656 | 36320 ft | 454 kts | 305° |
| 2026-05-07 19:43 | 13.24670 | 122.21084 | 35864 ft | 451 kts | 305° |
| 2026-05-07 19:43 | 13.26562 | 122.18519 | 35390 ft | 449 kts | 305° |
| 2026-05-07 19:43 | 13.28439 | 122.15971 | 34905 ft | 447 kts | 304° |
| 2026-05-07 19:44 | 13.30310 | 122.13432 | 34435 ft | 445 kts | 304° |
| 2026-05-07 19:44 | 13.32175 | 122.10899 | 33959 ft | 443 kts | 304° |
| 2026-05-07 19:44 | 13.34032 | 122.08377 | 33443 ft | 442 kts | 304° |
| 2026-05-07 19:44 | 13.35879 | 122.05868 | 32956 ft | 440 kts | 305° |
| 2026-05-07 19:45 | 13.37721 | 122.03365 | 32472 ft | 437 kts | 305° |
| 2026-05-07 19:45 | 13.39531 | 122.00904 | 31996 ft | 435 kts | 305° |
| 2026-05-07 19:45 | 13.41349 | 121.98434 | 31542 ft | 432 kts | 306° |
| 2026-05-07 19:45 | 13.43159 | 121.95973 | 31073 ft | 430 kts | 306° |
| 2026-05-07 19:46 | 13.44962 | 121.93521 | 30611 ft | 429 kts | 306° |
| 2026-05-07 19:46 | 13.46756 | 121.91079 | 30133 ft | 427 kts | 306° |
| 2026-05-07 19:46 | 13.48547 | 121.88643 | 29616 ft | 426 kts | 306° |
| 2026-05-07 19:46 | 13.50327 | 121.86220 | 29072 ft | 423 kts | 306° |
| 2026-05-07 19:47 | 13.52093 | 121.83815 | 28550 ft | 420 kts | 306° |
| 2026-05-07 19:47 | 13.53846 | 121.81426 | 28041 ft | 417 kts | 307° |
| 2026-05-07 19:47 | 13.55584 | 121.79058 | 27574 ft | 413 kts | 307° |
| 2026-05-07 19:47 | 13.57307 | 121.76709 | 27150 ft | 408 kts | 307° |
| 2026-05-07 19:48 | 13.59004 | 121.74397 | 26774 ft | 403 kts | 307° |
| 2026-05-07 19:48 | 13.60683 | 121.72107 | 26337 ft | 400 kts | 307° |
| 2026-05-07 19:48 | 13.62357 | 121.69824 | 25790 ft | 401 kts | 307° |
| 2026-05-07 19:48 | 13.64046 | 121.67518 | 25107 ft | 405 kts | 307° |
| 2026-05-07 19:49 | 13.65745 | 121.65199 | 24528 ft | 407 kts | 307° |
| 2026-05-07 19:49 | 13.67429 | 121.62902 | 23949 ft | 408 kts | 307° |
| 2026-05-07 19:49 | 13.69187 | 121.60610 | 23301 ft | 409 kts | 313° |
| 2026-05-07 19:49 | 13.71245 | 121.58551 | 22325 ft | 417 kts | 319° |
| 2026-05-07 19:50 | 13.73441 | 121.56599 | 21603 ft | 418 kts | 320° |
| 2026-05-07 19:50 | 13.75668 | 121.54666 | 20954 ft | 417 kts | 321° |
| 2026-05-07 19:50 | 13.77876 | 121.52731 | 20311 ft | 416 kts | 320° |
| 2026-05-07 19:50 | 13.80067 | 121.50780 | 19663 ft | 416 kts | 320° |
| 2026-05-07 19:51 | 13.82244 | 121.48814 | 19044 ft | 415 kts | 319° |
| 2026-05-07 19:51 | 13.83673 | 121.47513 | 18688 ft | 413 kts | 319° |
| 2026-05-07 19:51 | 13.85820 | 121.45548 | 18165 ft | 410 kts | 319° |
| 2026-05-07 19:51 | 13.87938 | 121.43606 | 17600 ft | 406 kts | 319° |
| 2026-05-07 19:52 | 13.90032 | 121.41684 | 17055 ft | 401 kts | 319° |
| 2026-05-07 19:52 | 13.92043 | 121.39836 | 16039 ft | 379 kts | 319° |
| 2026-05-07 19:52 | 13.93990 | 121.38048 | 14720 ft | 373 kts | 319° |
| 2026-05-07 19:52 | 13.95957 | 121.36245 | 14101 ft | 378 kts | 319° |
| 2026-05-07 19:53 | 13.97887 | 121.34473 | 14019 ft | 363 kts | 319° |
| 2026-05-07 19:53 | 13.99735 | 121.32776 | 13933 ft | 349 kts | 319° |
| 2026-05-07 19:53 | 14.01518 | 121.31139 | 13849 ft | 334 kts | 320° |
| 2026-05-07 19:53 | 14.03186 | 121.29607 | 13280 ft | 314 kts | 320° |
| 2026-05-07 19:54 | 14.04684 | 121.27999 | 12326 ft | 311 kts | 305° |
| 2026-05-07 19:54 | 14.05581 | 121.26008 | 11885 ft | 304 kts | 291° |
| 2026-05-07 19:54 | 14.06326 | 121.23964 | 11527 ft | 304 kts | 291° |
| 2026-05-07 19:54 | 14.07076 | 121.21925 | 11175 ft | 304 kts | 291° |
| 2026-05-07 19:55 | 14.07830 | 121.19886 | 10807 ft | 304 kts | 291° |
| 2026-05-07 19:55 | 14.08587 | 121.17849 | 10458 ft | 304 kts | 291° |
| 2026-05-07 19:55 | 14.09343 | 121.15816 | 10169 ft | 301 kts | 292° |
| 2026-05-07 19:55 | 14.10083 | 121.13829 | 10011 ft | 293 kts | 292° |
| 2026-05-07 19:56 | 14.10814 | 121.11868 | 9686 ft | 293 kts | 292° |
| 2026-05-07 19:56 | 14.11545 | 121.09909 | 9335 ft | 293 kts | 292° |
| 2026-05-07 19:56 | 14.12277 | 121.07949 | 8992 ft | 292 kts | 292° |
| 2026-05-07 19:56 | 14.13005 | 121.05998 | 8657 ft | 291 kts | 292° |
| 2026-05-07 19:57 | 14.13719 | 121.04082 | 8339 ft | 291 kts | 292° |
| 2026-05-07 19:57 | 14.14446 | 121.02134 | 8014 ft | 291 kts | 292° |
| 2026-05-07 19:57 | 14.15172 | 121.00189 | 7695 ft | 289 kts | 292° |
| 2026-05-07 19:57 | 14.15887 | 120.98272 | 7512 ft | 282 kts | 292° |
| 2026-05-07 19:58 | 14.16582 | 120.96407 | 7312 ft | 277 kts | 292° |
| 2026-05-07 19:58 | 14.17474 | 120.94695 | 6921 ft | 272 kts | 314° |
| 2026-05-07 19:58 | 14.18972 | 120.93543 | 6525 ft | 269 kts | 333° |
| 2026-05-07 19:58 | 14.20613 | 120.92599 | 6229 ft | 269 kts | 333° |
| 2026-05-07 19:59 | 14.22229 | 120.91657 | 6036 ft | 264 kts | 333° |
| 2026-05-07 19:59 | 14.23804 | 120.90731 | 5881 ft | 257 kts | 333° |
| 2026-05-07 19:59 | 14.25351 | 120.89818 | 5671 ft | 254 kts | 333° |
| 2026-05-07 19:59 | 14.26883 | 120.88915 | 5393 ft | 253 kts | 334° |
| 2026-05-07 20:00 | 14.28412 | 120.88018 | 5121 ft | 253 kts | 334° |
| 2026-05-07 20:00 | 14.29930 | 120.87141 | 4768 ft | 256 kts | 334° |
| 2026-05-07 20:00 | 14.31502 | 120.86235 | 4389 ft | 260 kts | 334° |
| 2026-05-07 20:00 | 14.33068 | 120.85327 | 4130 ft | 257 kts | 334° |
| 2026-05-07 20:01 | 14.34584 | 120.84446 | 3789 ft | 241 kts | 334° |
| 2026-05-07 20:01 | 14.36031 | 120.83606 | 3527 ft | 237 kts | 335° |
| 2026-05-07 20:01 | 14.37468 | 120.82838 | 3295 ft | 226 kts | 346° |
| 2026-05-07 20:01 | 14.38942 | 120.82779 | 3184 ft | 204 kts | 20° |
| 2026-05-07 20:02 | 14.40156 | 120.83400 | 3106 ft | 191 kts | 39° |
| 2026-05-07 20:02 | 14.41072 | 120.84354 | 3020 ft | 185 kts | 59° |
| 2026-05-07 20:02 | 14.41736 | 120.85486 | 2981 ft | 187 kts | 62° |
| 2026-05-07 20:02 | 14.42385 | 120.86643 | 2854 ft | 189 kts | 62° |
| 2026-05-07 20:03 | 14.43037 | 120.87818 | 2625 ft | 189 kts | 61° |
| 2026-05-07 20:03 | 14.43677 | 120.88977 | 2413 ft | 180 kts | 61° |
| 2026-05-07 20:03 | 14.44280 | 120.90063 | 2213 ft | 170 kts | 61° |
| 2026-05-07 20:03 | 14.44858 | 120.91114 | 1950 ft | 166 kts | 61° |
| 2026-05-07 20:04 | 14.45397 | 120.92085 | 1776 ft | 148 kts | 62° |
| 2026-05-07 20:04 | 14.45896 | 120.92987 | 1562 ft | 138 kts | 61° |
| 2026-05-07 20:04 | 14.46373 | 120.93850 | 1384 ft | 138 kts | 62° |
| 2026-05-07 20:04 | 14.46847 | 120.94708 | 1240 ft | 139 kts | 61° |
| 2026-05-07 20:05 | 14.47323 | 120.95569 | 1043 ft | 138 kts | 62° |
| 2026-05-07 20:05 | 14.47806 | 120.96447 | 844 ft | 143 kts | 62° |
| 2026-05-07 20:05 | 14.48303 | 120.97337 | 678 ft | 143 kts | 60° |
| 2026-05-07 20:05 | 14.48802 | 120.98229 | 518 ft | 145 kts | 63° |
| 2026-05-07 20:06 | 14.49294 | 120.99123 | 330 ft | 146 kts | 61° |
| 2026-05-07 20:06 | 14.49796 | 121.00031 | 140 ft | 143 kts | 61° |
| 2026-05-07 20:06 | 14.50267 | 121.00878 | 63 ft | 121 kts | 60° |
| 2026-05-07 20:06 | 14.50611 | 121.01495 | 63 ft | 77 kts | 60° |
| 2026-05-07 20:07 | 14.50834 | 121.01895 | 71 ft | 59 kts | 60° |
| 2026-05-07 20:07 | 14.50990 | 121.02169 | 64 ft | 35 kts | 55° |
| 2026-05-07 20:07 | 14.51113 | 121.02285 | 76 ft | 10 kts | 37° |
| 2026-05-07 20:07 | 14.51176 | 121.02294 | 64 ft | 10 kts | 321° |
| 2026-05-07 20:08 | 14.51171 | 121.02225 | 65 ft | 10 kts | 249° |
| 2026-05-07 20:08 | 14.51137 | 121.02161 | 63 ft | 10 kts | 240° |
| 2026-05-07 20:08 | 14.51102 | 121.02098 | 65 ft | 10 kts | 240° |
| 2026-05-07 20:08 | 14.51066 | 121.02034 | 63 ft | 11 kts | 240° |
| 2026-05-07 20:09 | 14.51025 | 121.01961 | 65 ft | 12 kts | 240° |
| 2026-05-07 20:09 | 14.50983 | 121.01886 | 63 ft | 13 kts | 240° |
| 2026-05-07 20:09 | 14.50932 | 121.01793 | 65 ft | 15 kts | 240° |
| 2026-05-07 20:10 | 14.50826 | 121.01602 | 64 ft | 15 kts | 240° |
| 2026-05-07 20:10 | 14.50774 | 121.01508 | 64 ft | 15 kts | 240° |
| 2026-05-07 20:10 | 14.50721 | 121.01413 | 63 ft | 15 kts | 240° |
| 2026-05-07 20:10 | 14.50668 | 121.01318 | 63 ft | 15 kts | 240° |
| 2026-05-07 20:11 | 14.50615 | 121.01223 | 65 ft | 15 kts | 239° |
| 2026-05-07 20:11 | 14.50562 | 121.01128 | 63 ft | 15 kts | 240° |
| 2026-05-07 20:11 | 14.50509 | 121.01034 | 63 ft | 15 kts | 240° |
| 2026-05-07 20:11 | 14.50456 | 121.00939 | 65 ft | 15 kts | 240° |
| 2026-05-07 20:12 | 14.50405 | 121.00845 | 64 ft | 15 kts | 240° |
| 2026-05-07 20:12 | 14.50373 | 121.00744 | 67 ft | 15 kts | 276° |
| 2026-05-07 20:12 | 14.50370 | 121.00637 | 63 ft | 15 kts | 245° |
| 2026-05-07 20:12 | 14.50320 | 121.00540 | 63 ft | 15 kts | 239° |
| 2026-05-07 20:13 | 14.50266 | 121.00447 | 62 ft | 15 kts | 239° |
| 2026-05-07 20:13 | 14.50222 | 121.00368 | 62 ft | 11 kts | 240° |
| 2026-05-07 20:13 | 14.50230 | 121.00297 | 66 ft | 11 kts | 322° |
| 2026-05-07 20:13 | 14.50307 | 121.00282 | 66 ft | 11 kts | 2° |
| 2026-05-07 20:14 | 14.50386 | 121.00287 | 68 ft | 11 kts | 4° |
| 2026-05-07 20:14 | 14.50443 | 121.00290 | 67 ft | 4 kts | 356° |
| 2026-05-07 20:14 | 14.50456 | 121.00266 | 66 ft | 4 kts | 281° |
| 2026-05-07 20:14 | 14.50459 | 121.00235 | 73 ft | 3 kts | 275° |
| 2026-05-07 20:15 | 14.50460 | 121.00226 | 73 ft | 1 kts | 275° |
| 2026-05-07 20:15 | 14.50461 | 121.00216 | 73 ft | 0 kts | 274° |